createdAt,value
2022-09-11T00:00:56.454Z,15.31
2022-09-11T00:03:25.534Z,15.40
2022-09-11T00:05:53.661Z,15.43
2022-09-11T00:08:22.569Z,15.16
2022-09-11T00:10:50.469Z,15.28
2022-09-11T00:13:21.349Z,15.27
2022-09-11T00:15:52.135Z,15.14
2022-09-11T00:18:22.342Z,15.32
2022-09-11T00:20:51.858Z,15.29
2022-09-11T00:23:20.811Z,15.28
2022-09-11T00:25:49.505Z,15.45
2022-09-11T00:28:20.094Z,15.50
2022-09-11T00:30:57.898Z,15.40
2022-09-11T00:33:27.999Z,15.37
2022-09-11T00:35:58.729Z,15.39
2022-09-11T00:38:27.135Z,15.22
2022-09-11T00:40:55.627Z,15.30
2022-09-11T00:43:23.591Z,15.39
2022-09-11T00:45:57.489Z,15.47
2022-09-11T00:48:29.936Z,15.21
2022-09-11T00:50:59.384Z,15.54
2022-09-11T00:53:31.261Z,15.45
2022-09-11T00:56:03.027Z,15.36
2022-09-11T00:58:38.233Z,15.26
2022-09-11T01:01:08.028Z,15.40
2022-09-11T01:03:35.907Z,15.46
2022-09-11T01:06:03.979Z,15.54
2022-09-11T01:08:34.318Z,15.37
2022-09-11T01:11:18.104Z,15.13
2022-09-11T01:13:53.200Z,15.10
2022-09-11T01:16:31.174Z,15.06
2022-09-11T01:19:06.544Z,15.13
2022-09-11T01:22:01.891Z,15.21
2022-09-11T01:24:51.689Z,15.03
2022-09-11T01:27:42.944Z,15.08
2022-09-11T01:30:13.506Z,15.19
2022-09-11T01:32:59.266Z,15.07
2022-09-11T01:35:37.332Z,15.23
2022-09-11T01:38:10.611Z,15.02
2022-09-11T01:40:45.840Z,15.18
2022-09-11T01:43:22.109Z,15.10
2022-09-11T01:45:52.859Z,15.25
2022-09-11T01:48:24.895Z,15.19
2022-09-11T01:50:54.583Z,15.19
2022-09-11T01:53:28.974Z,15.15
2022-09-11T01:56:02.355Z,15.08
2022-09-11T01:58:37.486Z,15.06
2022-09-11T02:01:10.701Z,15.05
2022-09-11T02:03:43.475Z,15.14
2022-09-11T02:06:18.825Z,15.11
2022-09-11T02:08:51.485Z,15.10
2022-09-11T02:11:23.834Z,15.10
2022-09-11T02:13:58.520Z,15.05
2022-09-11T02:16:40.036Z,14.99
2022-09-11T02:19:12.232Z,14.96
2022-09-11T02:21:40.614Z,14.93
2022-09-11T02:24:10.805Z,14.95
2022-09-11T02:26:43.878Z,14.92
2022-09-11T02:29:14.423Z,14.95
2022-09-11T02:31:43.724Z,14.98
2022-09-11T02:34:14.363Z,15.07
2022-09-11T02:37:06.076Z,15.01
2022-09-11T02:40:00.398Z,14.92
2022-09-11T02:42:50.846Z,15.04
2022-09-11T02:45:35.602Z,15.06
2022-09-11T02:48:25.383Z,15.02
2022-09-11T02:51:03.308Z,14.98
2022-09-11T02:53:42.516Z,14.99
2022-09-11T02:56:16.384Z,15.04
2022-09-11T02:58:48.163Z,15.03
2022-09-11T03:01:18.444Z,14.91
2022-09-11T03:03:47.818Z,15.02
2022-09-11T03:06:19.020Z,14.97
2022-09-11T03:08:47.942Z,15.11
2022-09-11T03:11:17.710Z,15.18
2022-09-11T03:13:47.551Z,15.14
2022-09-11T03:16:18.095Z,15.08
2022-09-11T03:18:45.925Z,15.08
2022-09-11T03:21:16.896Z,15.07
2022-09-11T03:23:44.917Z,15.18
2022-09-11T03:26:12.672Z,15.22
2022-09-11T03:28:40.799Z,15.18
2022-09-11T03:31:09.492Z,15.17
2022-09-11T03:33:39.115Z,15.23
2022-09-11T03:36:07.696Z,15.25
2022-09-11T03:38:35.958Z,15.19
2022-09-11T03:41:03.805Z,15.19
2022-09-11T03:43:36.663Z,15.22
2022-09-11T03:46:04.513Z,15.34
2022-09-11T03:48:33.302Z,15.35
2022-09-11T03:51:05.678Z,15.27
2022-09-11T03:53:33.947Z,15.11
2022-09-11T03:56:03.933Z,15.13
2022-09-11T03:58:37.232Z,15.08
2022-09-11T04:01:09.652Z,15.17
2022-09-11T04:03:37.583Z,15.09
2022-09-11T04:06:07.487Z,15.11
2022-09-11T04:08:37.020Z,15.11
2022-09-11T04:11:06.738Z,15.15
2022-09-11T04:13:38.007Z,15.11
2022-09-11T04:16:12.646Z,15.09
2022-09-11T04:18:43.542Z,15.02
2022-09-11T04:21:15.489Z,14.96
2022-09-11T04:23:45.508Z,14.94
2022-09-11T04:26:15.806Z,15.01
2022-09-11T04:28:45.391Z,15.09
2022-09-11T04:31:15.894Z,15.00
2022-09-11T04:33:43.948Z,14.95
2022-09-11T04:36:15.155Z,14.98
2022-09-11T04:38:43.158Z,14.95
2022-09-11T04:41:13.513Z,15.06
2022-09-11T04:43:42.469Z,15.08
2022-09-11T04:46:14.934Z,14.90
2022-09-11T04:48:47.338Z,14.99
2022-09-11T04:51:22.599Z,14.92
2022-09-11T04:53:51.019Z,15.11
2022-09-11T04:56:21.155Z,15.18
2022-09-11T04:58:54.150Z,15.09
2022-09-11T05:01:26.615Z,15.09
2022-09-11T05:03:57.960Z,15.19
2022-09-11T05:06:27.339Z,15.09
2022-09-11T05:08:55.383Z,15.15
2022-09-11T05:11:25.949Z,15.15
2022-09-11T05:13:54.001Z,15.07
2022-09-11T05:16:22.267Z,15.08
2022-09-11T05:18:52.566Z,15.11
2022-09-11T05:21:24.239Z,15.28
2022-09-11T05:23:55.508Z,15.18
2022-09-11T05:26:25.345Z,15.25
2022-09-11T05:28:55.636Z,15.09
2022-09-11T05:31:25.348Z,15.09
2022-09-11T05:33:55.871Z,15.07
2022-09-11T05:36:26.285Z,15.20
2022-09-11T05:38:55.819Z,15.17
2022-09-11T05:41:24.523Z,15.05
2022-09-11T05:43:52.778Z,15.19
2022-09-11T05:46:23.383Z,15.23
2022-09-11T05:48:55.136Z,15.25
2022-09-11T05:51:23.656Z,15.32
2022-09-11T05:53:55.833Z,15.31
2022-09-11T05:56:26.159Z,15.17
2022-09-11T05:58:58.646Z,15.26
2022-09-11T06:01:34.581Z,15.36
2022-09-11T06:04:12.171Z,15.38
2022-09-11T06:06:41.713Z,15.44
2022-09-11T06:09:10.873Z,15.29
2022-09-11T06:11:38.771Z,15.26
2022-09-11T06:14:07.001Z,15.49
2022-09-11T06:16:35.255Z,15.43
2022-09-11T06:19:12.811Z,15.37
2022-09-11T06:21:41.622Z,15.55
2022-09-11T06:24:18.631Z,15.51
2022-09-11T06:26:46.914Z,15.53
2022-09-11T06:29:16.150Z,15.53
2022-09-11T06:31:51.285Z,15.63
2022-09-11T06:34:22.375Z,15.50
2022-09-11T06:36:52.302Z,15.54
2022-09-11T06:39:23.036Z,15.79
2022-09-11T06:41:53.906Z,15.91
2022-09-11T06:44:27.683Z,15.97
2022-09-11T06:46:59.415Z,16.03
2022-09-11T06:49:27.738Z,15.97
2022-09-11T06:52:28.118Z,15.76
2022-09-11T06:55:31.499Z,15.80
2022-09-11T06:58:06.009Z,15.84
2022-09-11T07:00:34.837Z,16.12
2022-09-11T07:03:03.108Z,16.26
2022-09-11T07:05:31.419Z,16.21
2022-09-11T07:08:01.540Z,16.13
2022-09-11T07:10:35.348Z,16.21
2022-09-11T07:13:03.604Z,16.30
2022-09-11T07:15:32.883Z,16.42
2022-09-11T07:18:02.103Z,16.38
2022-09-11T07:20:31.375Z,16.58
2022-09-11T07:22:59.527Z,16.40
2022-09-11T07:25:29.555Z,16.33
2022-09-11T07:27:58.964Z,16.62
2022-09-11T07:30:27.519Z,16.41
2022-09-11T07:32:57.408Z,16.42
2022-09-11T07:35:25.399Z,16.75
2022-09-11T07:37:54.460Z,16.70
2022-09-11T07:40:26.513Z,16.72
2022-09-11T07:42:54.678Z,16.60
2022-09-11T07:45:24.341Z,16.82
2022-09-11T07:47:53.220Z,16.94
2022-09-11T07:50:24.251Z,16.92
2022-09-11T07:52:52.339Z,17.00
2022-09-11T07:55:21.221Z,16.99
2022-09-11T07:57:51.930Z,16.72
2022-09-11T08:00:20.062Z,17.08
2022-09-11T08:02:49.663Z,16.99
2022-09-11T08:05:28.725Z,17.02
2022-09-11T08:07:58.794Z,17.10
2022-09-11T08:10:28.040Z,17.28
2022-09-11T08:12:59.914Z,17.13
2022-09-11T08:15:32.422Z,17.28
2022-09-11T08:18:03.408Z,17.29
2022-09-11T08:20:33.243Z,17.46
2022-09-11T08:23:01.078Z,17.63
2022-09-11T08:25:29.635Z,17.50
2022-09-11T08:27:59.645Z,17.57
2022-09-11T08:30:28.265Z,17.47
2022-09-11T08:32:56.193Z,17.31
2022-09-11T08:35:26.129Z,17.50
2022-09-11T08:37:55.234Z,17.49
2022-09-11T08:40:24.053Z,17.24
2022-09-11T08:42:53.412Z,17.25
2022-09-11T08:45:24.632Z,17.42
2022-09-11T08:47:57.101Z,17.57
2022-09-11T08:50:29.205Z,17.44
2022-09-11T08:52:58.991Z,17.68
2022-09-11T08:55:36.632Z,17.84
2022-09-11T08:58:14.395Z,17.58
2022-09-11T09:00:48.510Z,17.71
2022-09-11T09:03:42.783Z,17.66
2022-09-11T09:06:32.706Z,17.57
2022-09-11T09:09:08.038Z,17.50
2022-09-11T09:11:43.285Z,17.78
2022-09-11T09:14:43.906Z,17.83
2022-09-11T09:17:19.301Z,17.94
2022-09-11T09:19:52.594Z,18.28
2022-09-11T09:22:27.819Z,18.43
2022-09-11T09:25:00.462Z,18.24
2022-09-11T09:27:35.214Z,18.47
2022-09-11T09:30:06.663Z,18.44
2022-09-11T09:32:40.880Z,18.30
2022-09-11T09:35:16.778Z,18.57
2022-09-11T09:37:45.969Z,18.64
2022-09-11T09:40:17.632Z,18.61
2022-09-11T09:43:24.022Z,18.45
2022-09-11T09:46:07.686Z,18.74
2022-09-11T09:48:39.715Z,18.46
2022-09-11T09:51:13.429Z,18.43
2022-09-11T09:53:46.361Z,18.51
2022-09-11T09:56:17.643Z,18.63
2022-09-11T09:58:55.552Z,18.76
2022-09-11T10:01:46.490Z,19.13
2022-09-11T10:04:17.844Z,19.39
2022-09-11T10:06:47.044Z,19.61
2022-09-11T10:09:28.089Z,19.65
2022-09-11T10:12:02.698Z,20.24
2022-09-11T10:14:50.385Z,20.04
2022-09-11T10:17:24.171Z,19.78
2022-09-11T10:19:55.674Z,19.65
2022-09-11T10:22:26.449Z,19.27
2022-09-11T10:25:02.856Z,19.40
2022-09-11T10:27:34.960Z,19.16
2022-09-11T10:30:03.431Z,19.18
2022-09-11T10:32:31.645Z,19.59
2022-09-11T10:35:00.121Z,20.16
2022-09-11T10:37:31.934Z,19.99
2022-09-11T10:41:15.754Z,20.36
2022-09-11T10:43:48.917Z,20.78
2022-09-11T10:46:28.234Z,20.65
2022-09-11T10:48:58.197Z,20.77
2022-09-11T10:51:28.141Z,21.77
2022-09-11T10:55:03.936Z,22.04
2022-09-11T10:57:39.871Z,21.07
2022-09-11T11:00:17.362Z,21.59
2022-09-11T11:02:47.476Z,21.92
2022-09-11T11:05:24.580Z,22.64
2022-09-11T11:08:12.106Z,22.61
2022-09-11T11:10:56.221Z,22.75
2022-09-11T11:13:40.819Z,21.94
2022-09-11T11:16:17.481Z,21.70
2022-09-11T11:18:59.834Z,21.47
2022-09-11T11:21:48.787Z,21.60
2022-09-11T11:24:34.001Z,21.57
2022-09-11T11:27:22.304Z,21.68
2022-09-11T11:30:06.194Z,22.37
2022-09-11T11:32:49.543Z,22.27
2022-09-11T11:35:22.848Z,22.67
2022-09-11T11:37:59.310Z,23.02
2022-09-11T11:40:59.153Z,23.46
2022-09-11T11:46:39.180Z,22.17
2022-09-11T11:52:23.391Z,22.25
2022-09-11T11:55:01.979Z,22.22
2022-09-11T12:09:33.935Z,22.91
2022-09-11T12:12:07.489Z,22.49
2022-09-11T12:14:35.384Z,21.92
2022-09-11T12:17:19.889Z,22.21
2022-09-11T12:20:31.505Z,21.71
2022-09-11T12:23:01.733Z,22.13
2022-09-11T12:26:05.281Z,22.47
2022-09-11T12:28:33.381Z,23.24
2022-09-11T12:31:04.478Z,23.14
2022-09-11T12:33:54.324Z,23.26
2022-09-11T12:36:37.613Z,23.61
2022-09-11T12:39:23.332Z,23.94
2022-09-11T12:41:51.126Z,23.86
2022-09-11T12:44:52.859Z,24.41
2022-09-11T12:47:23.358Z,24.23
2022-09-11T12:49:57.200Z,23.88
2022-09-11T12:52:40.159Z,23.43
2022-09-11T12:55:28.893Z,24.25
2022-09-11T12:57:58.002Z,23.96
2022-09-11T13:00:36.559Z,23.67
2022-09-11T13:03:05.831Z,24.45
2022-09-11T13:05:37.999Z,24.39
2022-09-11T13:08:16.182Z,23.94
2022-09-11T13:10:46.781Z,23.23
2022-09-11T13:13:44.476Z,24.40
2022-09-11T13:16:19.512Z,24.09
2022-09-11T13:18:47.349Z,23.90
2022-09-11T13:21:18.162Z,24.25
2022-09-11T13:23:46.795Z,24.72
2022-09-11T13:26:24.970Z,24.29
2022-09-11T13:28:55.614Z,24.38
2022-09-11T13:31:32.278Z,25.38
2022-09-11T13:34:02.212Z,25.45
2022-09-11T13:36:31.648Z,24.27
2022-09-11T13:39:02.367Z,24.91
2022-09-11T13:41:34.610Z,24.89
2022-09-11T13:44:04.235Z,25.42
2022-09-11T13:46:33.861Z,25.22
2022-09-11T13:49:35.184Z,24.67
2022-09-11T13:52:06.137Z,25.25
2022-09-11T13:54:38.243Z,25.56
2022-09-11T13:57:14.980Z,25.38
2022-09-11T13:59:49.336Z,25.54
2022-09-11T14:02:40.685Z,26.24
2022-09-11T14:05:15.780Z,26.16
2022-09-11T14:07:48.353Z,24.88
2022-09-11T14:10:22.419Z,24.46
2022-09-11T14:12:56.633Z,25.16
2022-09-11T14:15:33.666Z,25.48
2022-09-11T14:18:03.717Z,24.80
2022-09-11T14:20:32.616Z,24.49
2022-09-11T14:23:05.086Z,24.57
2022-09-11T14:25:34.056Z,24.29
2022-09-11T14:28:03.674Z,24.34
2022-09-11T14:30:37.405Z,23.77
2022-09-11T14:33:25.084Z,23.38
2022-09-11T14:35:59.673Z,23.50
2022-09-11T14:38:27.527Z,23.71
2022-09-11T14:40:59.191Z,23.70
2022-09-11T14:43:32.619Z,23.31
2022-09-11T14:46:01.938Z,23.42
2022-09-11T14:48:31.829Z,23.08
2022-09-11T14:51:00.279Z,23.04
2022-09-11T14:53:30.357Z,23.12
2022-09-11T14:55:59.849Z,22.64
2022-09-11T14:58:30.071Z,22.83
2022-09-11T15:00:58.146Z,22.79
2022-09-11T15:03:26.402Z,22.79
2022-09-11T15:05:57.195Z,22.64
2022-09-11T15:08:26.349Z,23.18
2022-09-11T15:10:54.693Z,23.38
2022-09-11T15:13:22.892Z,23.30
2022-09-11T15:15:54.095Z,23.08
2022-09-11T15:18:21.948Z,23.35
2022-09-11T15:20:49.803Z,23.12
2022-09-11T15:23:18.246Z,23.01
2022-09-11T15:25:46.297Z,23.13
2022-09-11T15:28:14.159Z,22.84
2022-09-11T15:30:42.813Z,22.59
2022-09-11T15:33:12.097Z,22.72
2022-09-11T15:35:39.895Z,22.88
2022-09-11T15:38:07.891Z,22.85
2022-09-11T15:40:36.422Z,23.28
2022-09-11T15:43:04.217Z,23.37
2022-09-11T15:45:32.721Z,23.53
2022-09-11T15:48:00.614Z,23.34
2022-09-11T15:50:30.245Z,23.11
2022-09-11T15:52:58.635Z,23.07
2022-09-11T15:55:27.253Z,23.32
2022-09-11T15:57:55.082Z,23.45
2022-09-11T16:00:22.890Z,23.45
2022-09-11T16:02:52.243Z,23.19
2022-09-11T16:05:23.058Z,23.11
2022-09-11T16:07:52.771Z,22.93
2022-09-11T16:10:21.203Z,22.96
2022-09-11T16:12:49.698Z,22.72
2022-09-11T16:15:18.306Z,22.90
2022-09-11T16:17:46.270Z,22.94
2022-09-11T16:20:43.603Z,22.56
2022-09-11T16:23:12.305Z,22.41
2022-09-11T16:25:41.492Z,22.46
2022-09-11T16:28:10.849Z,22.34
2022-09-11T16:30:44.448Z,22.41
2022-09-11T16:33:15.036Z,22.41
2022-09-11T16:35:45.315Z,21.93
2022-09-11T16:38:13.841Z,22.19
2022-09-11T16:40:42.138Z,22.03
2022-09-11T16:43:10.391Z,22.32
2022-09-11T16:45:41.279Z,22.19
2022-09-11T16:48:09.843Z,21.96
2022-09-11T16:50:37.993Z,21.74
2022-09-11T16:53:07.660Z,21.87
2022-09-11T16:55:35.735Z,21.93
2022-09-11T16:58:04.042Z,21.71
2022-09-11T17:00:32.372Z,21.82
2022-09-11T17:03:00.235Z,21.40
2022-09-11T17:05:28.126Z,21.42
2022-09-11T17:07:55.892Z,21.48
2022-09-11T17:10:25.432Z,21.40
2022-09-11T17:12:55.465Z,21.41
2022-09-11T17:15:25.302Z,21.52
2022-09-11T17:17:54.697Z,21.46
2022-09-11T17:20:22.492Z,21.49
2022-09-11T17:22:52.758Z,21.03
2022-09-11T17:25:22.634Z,20.63
2022-09-11T17:27:51.751Z,20.83
2022-09-11T17:30:21.369Z,20.61
2022-09-11T17:32:49.244Z,20.86
2022-09-11T17:35:17.232Z,20.77
2022-09-11T17:37:45.999Z,20.43
2022-09-11T17:40:14.801Z,20.62
2022-09-11T17:42:45.302Z,20.57
2022-09-11T17:45:15.505Z,20.67
2022-09-11T17:47:43.679Z,20.72
2022-09-11T17:50:12.154Z,20.33
2022-09-11T17:52:39.970Z,20.24
2022-09-11T17:55:09.272Z,20.05
2022-09-11T17:57:37.319Z,20.18
2022-09-11T18:00:06.440Z,20.06
2022-09-11T18:02:41.277Z,19.74
2022-09-11T18:05:09.337Z,19.85
2022-09-11T18:07:37.376Z,19.86
2022-09-11T18:10:05.879Z,19.90
2022-09-11T18:12:35.253Z,19.57
2022-09-11T18:15:03.813Z,19.89
2022-09-11T18:17:31.963Z,19.82
2022-09-11T18:20:01.172Z,19.85
2022-09-11T18:22:29.886Z,19.73
2022-09-11T18:24:59.882Z,19.58
2022-09-11T18:27:29.827Z,19.51
2022-09-11T18:29:57.706Z,19.37
2022-09-11T18:32:26.198Z,19.47
2022-09-11T18:34:54.031Z,19.49
2022-09-11T18:37:23.369Z,19.42
2022-09-11T18:39:51.161Z,19.06
2022-09-11T18:42:19.103Z,19.05
2022-09-11T18:44:46.905Z,19.10
2022-09-11T18:47:14.689Z,19.02
2022-09-11T18:49:42.461Z,19.07
2022-09-11T18:52:10.849Z,19.08
2022-09-11T18:54:39.959Z,18.83
2022-09-11T18:57:08.935Z,18.75
2022-09-11T18:59:36.744Z,18.87
2022-09-11T19:02:05.080Z,18.76
2022-09-11T19:04:33.006Z,18.53
2022-09-11T19:07:00.797Z,18.01
2022-09-11T19:09:29.275Z,18.29
2022-09-11T19:12:00.329Z,18.24
2022-09-11T19:14:28.337Z,18.33
2022-09-11T19:16:56.256Z,18.07
2022-09-11T19:19:24.014Z,18.39
2022-09-11T19:21:51.858Z,18.26
2022-09-11T19:24:20.375Z,18.42
2022-09-11T19:26:48.255Z,18.27
2022-09-11T19:29:20.157Z,18.32
2022-09-11T19:31:48.109Z,17.78
2022-09-11T19:34:16.089Z,17.63
2022-09-11T19:36:43.818Z,17.84
2022-09-11T19:39:12.300Z,17.94
2022-09-11T19:41:40.568Z,17.90
2022-09-11T19:44:12.079Z,17.96
2022-09-11T19:46:42.858Z,17.82
2022-09-11T19:49:11.481Z,17.66
2022-09-11T19:51:41.456Z,17.53
2022-09-11T19:54:11.570Z,17.31
2022-09-11T19:56:40.068Z,17.26
2022-09-11T19:59:09.160Z,17.20
2022-09-11T20:01:37.331Z,17.21
2022-09-11T20:04:07.354Z,17.15
2022-09-11T20:06:36.265Z,17.08
2022-09-11T20:09:30.874Z,16.93
2022-09-11T20:11:53.661Z,16.92
2022-09-11T20:14:21.587Z,16.96
2022-09-11T20:16:49.320Z,16.82
2022-09-11T20:19:20.033Z,16.64
2022-09-11T20:24:50.754Z,16.19
2022-09-11T20:27:18.605Z,16.24
2022-09-11T20:29:46.357Z,16.48
2022-09-11T20:32:16.737Z,16.47
2022-09-11T20:34:45.976Z,16.31
2022-09-11T20:37:13.703Z,16.32
2022-09-11T20:39:41.460Z,16.01
2022-09-11T20:42:09.437Z,15.94
2022-09-11T20:44:37.407Z,15.88
2022-09-11T20:47:05.561Z,15.93
2022-09-11T20:49:33.376Z,15.89
2022-09-11T20:52:03.682Z,15.74
2022-09-11T20:54:31.528Z,15.91
2022-09-11T20:57:00.593Z,15.91
2022-09-11T20:59:28.558Z,15.94
2022-09-11T21:01:56.571Z,15.90
2022-09-11T21:04:24.952Z,15.71
2022-09-11T21:06:54.160Z,15.36
2022-09-11T21:09:25.308Z,15.76
2022-09-11T21:11:53.131Z,15.71
2022-09-11T21:14:20.950Z,15.70
2022-09-11T21:16:48.804Z,15.71
2022-09-11T21:19:16.629Z,15.43
2022-09-11T21:21:44.640Z,15.09
2022-09-11T21:24:14.102Z,15.13
2022-09-11T21:26:43.292Z,15.35
2022-09-11T21:29:14.212Z,15.13
2022-09-11T21:31:42.135Z,15.38
2022-09-11T21:34:10.609Z,15.26
2022-09-11T21:36:38.486Z,15.09
2022-09-11T21:39:06.476Z,15.14
2022-09-11T21:41:34.342Z,14.77
2022-09-11T21:44:04.004Z,14.39
2022-09-11T21:46:31.822Z,14.37
2022-09-11T21:48:59.919Z,14.30
2022-09-11T21:51:27.801Z,14.57
2022-09-11T21:53:58.160Z,14.39
2022-09-11T21:56:29.455Z,13.98
2022-09-11T22:04:06.239Z,14.43
2022-09-11T22:06:34.014Z,14.44
2022-09-11T22:09:01.838Z,14.65
2022-09-11T22:11:30.714Z,14.66
2022-09-11T22:13:58.527Z,14.19
2022-09-11T22:16:26.381Z,13.79
2022-09-11T22:18:56.937Z,13.70
2022-09-11T22:21:24.592Z,13.53
2022-09-11T22:23:52.552Z,13.69
2022-09-11T22:26:23.611Z,14.02
2022-09-11T22:28:51.473Z,14.09
2022-09-11T22:31:21.263Z,13.88
2022-09-11T22:33:49.227Z,13.84
2022-09-11T22:36:20.546Z,13.49
2022-09-11T22:38:48.563Z,13.71
2022-09-11T22:41:17.174Z,13.96
2022-09-11T22:43:45.391Z,14.03
2022-09-11T22:46:13.521Z,14.12
2022-09-11T22:48:41.396Z,14.12
2022-09-11T22:51:09.550Z,14.14
2022-09-11T22:53:39.762Z,14.26
2022-09-11T22:56:08.205Z,14.23
2022-09-11T22:58:38.262Z,14.14
2022-09-11T23:01:08.281Z,14.21
2022-09-11T23:03:36.253Z,14.02
2022-09-11T23:06:23.029Z,14.15
2022-09-11T23:08:52.301Z,14.06
2022-09-11T23:11:20.710Z,14.10
2022-09-11T23:13:49.525Z,14.05
2022-09-11T23:16:19.526Z,13.99
2022-09-11T23:18:47.858Z,13.99
2022-09-11T23:21:15.949Z,13.92
2022-09-11T23:23:45.118Z,13.68
2022-09-11T23:26:14.840Z,13.76
2022-09-11T23:28:43.104Z,13.72
2022-09-11T23:31:12.408Z,13.63
2022-09-11T23:33:40.266Z,13.83
2022-09-11T23:36:09.630Z,13.81
2022-09-11T23:38:37.557Z,13.84
2022-09-11T23:41:05.456Z,13.73
2022-09-11T23:43:34.690Z,13.66
2022-09-11T23:46:02.625Z,13.83
2022-09-11T23:48:30.496Z,13.39
2022-09-11T23:50:58.295Z,13.26
2022-09-11T23:53:26.174Z,13.21
2022-09-11T23:55:53.941Z,13.49
2022-09-11T23:58:21.971Z,13.43
